sensor_id;sensor_type;location;lat;lon;timestamp;P1;durP1;ratioP1;P2;durP2;ratioP2
16520;SDS011;8373;48.110;11.522;2023-01-23T00:01:12;89.03;;;30.40;;
16520;SDS011;8373;48.110;11.522;2023-01-23T00:03:42;101.13;;;30.63;;
16520;SDS011;8373;48.110;11.522;2023-01-23T00:06:09;105.50;;;35.17;;
16520;SDS011;8373;48.110;11.522;2023-01-23T00:08:38;111.90;;;32.73;;
16520;SDS011;8373;48.110;11.522;2023-01-23T00:11:08;101.87;;;33.23;;
16520;SDS011;8373;48.110;11.522;2023-01-23T00:13:37;98.00;;;31.17;;
16520;SDS011;8373;48.110;11.522;2023-01-23T00:16:04;99.67;;;30.20;;
16520;SDS011;8373;48.110;11.522;2023-01-23T00:18:31;97.97;;;30.83;;
16520;SDS011;8373;48.110;11.522;2023-01-23T00:21:02;94.07;;;31.47;;
16520;SDS011;8373;48.110;11.522;2023-01-23T00:23:29;100.80;;;30.90;;
16520;SDS011;8373;48.110;11.522;2023-01-23T00:26:00;88.27;;;30.57;;
16520;SDS011;8373;48.110;11.522;2023-01-23T00:28:30;108.10;;;33.50;;
16520;SDS011;8373;48.110;11.522;2023-01-23T00:31:05;100.77;;;32.97;;
16520;SDS011;8373;48.110;11.522;2023-01-23T00:33:33;106.37;;;31.60;;
16520;SDS011;8373;48.110;11.522;2023-01-23T00:36:00;107.53;;;33.23;;
16520;SDS011;8373;48.110;11.522;2023-01-23T00:38:27;103.87;;;34.40;;
16520;SDS011;8373;48.110;11.522;2023-01-23T00:40:54;95.13;;;30.77;;
16520;SDS011;8373;48.110;11.522;2023-01-23T00:43:21;100.03;;;33.07;;
16520;SDS011;8373;48.110;11.522;2023-01-23T00:45:50;84.57;;;28.33;;
16520;SDS011;8373;48.110;11.522;2023-01-23T00:48:17;109.87;;;30.43;;
16520;SDS011;8373;48.110;11.522;2023-01-23T00:50:45;107.57;;;32.37;;
16520;SDS011;8373;48.110;11.522;2023-01-23T00:53:12;102.13;;;31.00;;
16520;SDS011;8373;48.110;11.522;2023-01-23T00:55:40;104.43;;;32.40;;
16520;SDS011;8373;48.110;11.522;2023-01-23T00:58:07;102.40;;;30.80;;
16520;SDS011;8373;48.110;11.522;2023-01-23T01:00:35;92.70;;;29.30;;
16520;SDS011;8373;48.110;11.522;2023-01-23T01:03:05;108.33;;;33.87;;
16520;SDS011;8373;48.110;11.522;2023-01-23T01:05:33;105.60;;;31.77;;
16520;SDS011;8373;48.110;11.522;2023-01-23T01:08:00;99.87;;;31.57;;
16520;SDS011;8373;48.110;11.522;2023-01-23T01:10:27;110.73;;;28.73;;
16520;SDS011;8373;48.110;11.522;2023-01-23T01:12:55;95.10;;;29.93;;
16520;SDS011;8373;48.110;11.522;2023-01-23T01:15:22;110.53;;;34.50;;
16520;SDS011;8373;48.110;11.522;2023-01-23T01:17:49;106.93;;;30.27;;
16520;SDS011;8373;48.110;11.522;2023-01-23T01:20:19;95.63;;;31.70;;
16520;SDS011;8373;48.110;11.522;2023-01-23T01:22:47;85.37;;;27.90;;
16520;SDS011;8373;48.110;11.522;2023-01-23T01:25:14;94.60;;;30.57;;
16520;SDS011;8373;48.110;11.522;2023-01-23T01:27:41;106.27;;;32.20;;
16520;SDS011;8373;48.110;11.522;2023-01-23T01:30:09;99.37;;;30.63;;
16520;SDS011;8373;48.110;11.522;2023-01-23T01:32:37;95.00;;;30.17;;
16520;SDS011;8373;48.110;11.522;2023-01-23T01:35:05;99.23;;;31.57;;
16520;SDS011;8373;48.110;11.522;2023-01-23T01:37:35;97.03;;;30.40;;
16520;SDS011;8373;48.110;11.522;2023-01-23T01:40:04;104.07;;;31.90;;
16520;SDS011;8373;48.110;11.522;2023-01-23T01:42:37;85.37;;;27.83;;
16520;SDS011;8373;48.110;11.522;2023-01-23T01:45:05;91.20;;;28.87;;
16520;SDS011;8373;48.110;11.522;2023-01-23T01:47:32;92.87;;;29.50;;
16520;SDS011;8373;48.110;11.522;2023-01-23T01:50:02;93.63;;;30.43;;
16520;SDS011;8373;48.110;11.522;2023-01-23T01:52:31;96.60;;;29.90;;
16520;SDS011;8373;48.110;11.522;2023-01-23T01:55:00;96.17;;;30.47;;
16520;SDS011;8373;48.110;11.522;2023-01-23T01:57:29;85.80;;;28.90;;
16520;SDS011;8373;48.110;11.522;2023-01-23T02:00:01;83.77;;;29.67;;
16520;SDS011;8373;48.110;11.522;2023-01-23T02:02:33;91.00;;;27.97;;
16520;SDS011;8373;48.110;11.522;2023-01-23T02:05:03;95.77;;;29.03;;
16520;SDS011;8373;48.110;11.522;2023-01-23T02:07:36;100.47;;;32.40;;
16520;SDS011;8373;48.110;11.522;2023-01-23T02:10:09;90.47;;;28.93;;
16520;SDS011;8373;48.110;11.522;2023-01-23T02:12:36;90.90;;;30.27;;
16520;SDS011;8373;48.110;11.522;2023-01-23T02:15:04;88.77;;;30.20;;
16520;SDS011;8373;48.110;11.522;2023-01-23T02:17:33;73.40;;;28.43;;
16520;SDS011;8373;48.110;11.522;2023-01-23T02:20:14;85.40;;;30.03;;
16520;SDS011;8373;48.110;11.522;2023-01-23T02:22:46;94.50;;;30.37;;
16520;SDS011;8373;48.110;11.522;2023-01-23T02:25:26;97.13;;;30.13;;
16520;SDS011;8373;48.110;11.522;2023-01-23T02:28:01;83.17;;;28.43;;
16520;SDS011;8373;48.110;11.522;2023-01-23T02:30:28;87.90;;;29.23;;
16520;SDS011;8373;48.110;11.522;2023-01-23T02:33:06;87.03;;;27.80;;
16520;SDS011;8373;48.110;11.522;2023-01-23T02:35:33;93.77;;;29.93;;
16520;SDS011;8373;48.110;11.522;2023-01-23T02:38:02;99.30;;;30.90;;
16520;SDS011;8373;48.110;11.522;2023-01-23T02:40:31;85.73;;;30.13;;
16520;SDS011;8373;48.110;11.522;2023-01-23T02:43:02;84.57;;;29.67;;
16520;SDS011;8373;48.110;11.522;2023-01-23T02:45:31;95.27;;;28.77;;
16520;SDS011;8373;48.110;11.522;2023-01-23T02:47:58;85.70;;;28.80;;
16520;SDS011;8373;48.110;11.522;2023-01-23T02:50:25;101.97;;;31.47;;
16520;SDS011;8373;48.110;11.522;2023-01-23T02:52:53;90.10;;;31.00;;
16520;SDS011;8373;48.110;11.522;2023-01-23T02:55:22;93.43;;;28.37;;
16520;SDS011;8373;48.110;11.522;2023-01-23T02:57:53;81.97;;;29.27;;
16520;SDS011;8373;48.110;11.522;2023-01-23T03:00:42;93.27;;;30.40;;
16520;SDS011;8373;48.110;11.522;2023-01-23T03:03:08;83.30;;;29.60;;
16520;SDS011;8373;48.110;11.522;2023-01-23T03:05:35;95.17;;;30.60;;
16520;SDS011;8373;48.110;11.522;2023-01-23T03:08:02;91.67;;;29.73;;
16520;SDS011;8373;48.110;11.522;2023-01-23T03:10:29;96.33;;;30.23;;
16520;SDS011;8373;48.110;11.522;2023-01-23T03:12:57;100.67;;;31.03;;
16520;SDS011;8373;48.110;11.522;2023-01-23T03:15:27;91.90;;;28.93;;
16520;SDS011;8373;48.110;11.522;2023-01-23T03:17:56;99.27;;;30.70;;
16520;SDS011;8373;48.110;11.522;2023-01-23T03:20:23;97.57;;;30.03;;
16520;SDS011;8373;48.110;11.522;2023-01-23T03:22:51;89.00;;;30.90;;
16520;SDS011;8373;48.110;11.522;2023-01-23T03:25:18;88.43;;;28.83;;
16520;SDS011;8373;48.110;11.522;2023-01-23T03:27:44;95.37;;;31.63;;
16520;SDS011;8373;48.110;11.522;2023-01-23T03:30:12;103.47;;;29.23;;
16520;SDS011;8373;48.110;11.522;2023-01-23T03:32:40;85.67;;;27.83;;
16520;SDS011;8373;48.110;11.522;2023-01-23T03:35:09;95.77;;;28.77;;
16520;SDS011;8373;48.110;11.522;2023-01-23T03:37:38;83.37;;;28.30;;
16520;SDS011;8373;48.110;11.522;2023-01-23T03:40:05;75.17;;;25.80;;
16520;SDS011;8373;48.110;11.522;2023-01-23T03:42:50;86.50;;;29.30;;
16520;SDS011;8373;48.110;11.522;2023-01-23T03:45:17;70.57;;;25.97;;
16520;SDS011;8373;48.110;11.522;2023-01-23T03:47:44;75.70;;;27.40;;
16520;SDS011;8373;48.110;11.522;2023-01-23T03:50:12;78.57;;;26.93;;
16520;SDS011;8373;48.110;11.522;2023-01-23T03:52:40;73.63;;;26.40;;
16520;SDS011;8373;48.110;11.522;2023-01-23T03:55:07;88.83;;;27.23;;
16520;SDS011;8373;48.110;11.522;2023-01-23T03:57:34;76.63;;;25.90;;
16520;SDS011;8373;48.110;11.522;2023-01-23T04:00:02;75.37;;;24.43;;
16520;SDS011;8373;48.110;11.522;2023-01-23T04:02:30;74.47;;;25.77;;
16520;SDS011;8373;48.110;11.522;2023-01-23T04:04:57;72.97;;;25.63;;
16520;SDS011;8373;48.110;11.522;2023-01-23T04:07:26;72.23;;;25.37;;
16520;SDS011;8373;48.110;11.522;2023-01-23T04:09:53;74.07;;;24.47;;
16520;SDS011;8373;48.110;11.522;2023-01-23T04:12:20;81.03;;;26.63;;
16520;SDS011;8373;48.110;11.522;2023-01-23T04:14:47;77.33;;;26.40;;
16520;SDS011;8373;48.110;11.522;2023-01-23T04:17:14;89.00;;;27.70;;
16520;SDS011;8373;48.110;11.522;2023-01-23T04:19:41;83.13;;;26.73;;
16520;SDS011;8373;48.110;11.522;2023-01-23T04:22:07;81.17;;;25.93;;
16520;SDS011;8373;48.110;11.522;2023-01-23T04:24:36;66.67;;;24.73;;
16520;SDS011;8373;48.110;11.522;2023-01-23T04:27:03;89.70;;;27.20;;
16520;SDS011;8373;48.110;11.522;2023-01-23T04:29:30;74.07;;;27.27;;
16520;SDS011;8373;48.110;11.522;2023-01-23T04:31:57;72.13;;;24.53;;
16520;SDS011;8373;48.110;11.522;2023-01-23T04:34:24;74.00;;;22.57;;
16520;SDS011;8373;48.110;11.522;2023-01-23T04:36:51;80.43;;;26.30;;
16520;SDS011;8373;48.110;11.522;2023-01-23T04:39:18;72.23;;;26.23;;
16520;SDS011;8373;48.110;11.522;2023-01-23T04:41:46;88.33;;;24.83;;
16520;SDS011;8373;48.110;11.522;2023-01-23T04:44:13;63.63;;;23.53;;
16520;SDS011;8373;48.110;11.522;2023-01-23T04:46:45;79.97;;;26.53;;
16520;SDS011;8373;48.110;11.522;2023-01-23T04:49:13;71.43;;;24.50;;
16520;SDS011;8373;48.110;11.522;2023-01-23T04:51:40;98.10;;;27.80;;
16520;SDS011;8373;48.110;11.522;2023-01-23T04:54:08;74.10;;;26.30;;
16520;SDS011;8373;48.110;11.522;2023-01-23T04:56:35;78.27;;;27.10;;
16520;SDS011;8373;48.110;11.522;2023-01-23T04:59:04;87.70;;;27.97;;
16520;SDS011;8373;48.110;11.522;2023-01-23T05:01:31;77.77;;;27.93;;
16520;SDS011;8373;48.110;11.522;2023-01-23T05:03:58;83.63;;;27.60;;
16520;SDS011;8373;48.110;11.522;2023-01-23T05:06:25;80.00;;;28.03;;
16520;SDS011;8373;48.110;11.522;2023-01-23T05:08:52;95.17;;;28.17;;
16520;SDS011;8373;48.110;11.522;2023-01-23T05:11:19;74.50;;;26.73;;
16520;SDS011;8373;48.110;11.522;2023-01-23T05:13:46;78.20;;;28.37;;
16520;SDS011;8373;48.110;11.522;2023-01-23T05:16:14;94.40;;;29.13;;
16520;SDS011;8373;48.110;11.522;2023-01-23T05:18:41;85.20;;;29.33;;
16520;SDS011;8373;48.110;11.522;2023-01-23T05:21:08;85.23;;;28.53;;
16520;SDS011;8373;48.110;11.522;2023-01-23T05:23:35;82.40;;;28.17;;
16520;SDS011;8373;48.110;11.522;2023-01-23T05:26:02;86.00;;;28.60;;
16520;SDS011;8373;48.110;11.522;2023-01-23T05:28:29;90.77;;;30.10;;
16520;SDS011;8373;48.110;11.522;2023-01-23T05:30:56;83.97;;;28.83;;
16520;SDS011;8373;48.110;11.522;2023-01-23T05:33:24;84.80;;;29.63;;
16520;SDS011;8373;48.110;11.522;2023-01-23T05:35:51;91.47;;;30.63;;
16520;SDS011;8373;48.110;11.522;2023-01-23T05:38:18;91.53;;;29.47;;
16520;SDS011;8373;48.110;11.522;2023-01-23T05:40:45;92.23;;;30.40;;
16520;SDS011;8373;48.110;11.522;2023-01-23T05:43:12;96.30;;;30.53;;
16520;SDS011;8373;48.110;11.522;2023-01-23T05:45:40;93.53;;;30.60;;
16520;SDS011;8373;48.110;11.522;2023-01-23T05:48:07;90.70;;;28.93;;
16520;SDS011;8373;48.110;11.522;2023-01-23T05:50:35;90.67;;;30.57;;
16520;SDS011;8373;48.110;11.522;2023-01-23T05:53:02;85.83;;;27.97;;
16520;SDS011;8373;48.110;11.522;2023-01-23T05:55:29;91.70;;;29.10;;
16520;SDS011;8373;48.110;11.522;2023-01-23T05:57:56;101.73;;;28.40;;
16520;SDS011;8373;48.110;11.522;2023-01-23T06:00:23;97.70;;;31.37;;
16520;SDS011;8373;48.110;11.522;2023-01-23T06:02:51;84.20;;;27.33;;
16520;SDS011;8373;48.110;11.522;2023-01-23T06:05:17;74.60;;;26.13;;
16520;SDS011;8373;48.110;11.522;2023-01-23T06:07:46;67.90;;;25.97;;
16520;SDS011;8373;48.110;11.522;2023-01-23T06:10:13;79.57;;;27.10;;
16520;SDS011;8373;48.110;11.522;2023-01-23T06:12:40;75.20;;;25.97;;
16520;SDS011;8373;48.110;11.522;2023-01-23T06:15:07;81.47;;;28.80;;
16520;SDS011;8373;48.110;11.522;2023-01-23T06:17:35;68.13;;;26.40;;
16520;SDS011;8373;48.110;11.522;2023-01-23T06:20:02;82.97;;;28.50;;
16520;SDS011;8373;48.110;11.522;2023-01-23T06:22:30;73.53;;;26.57;;
16520;SDS011;8373;48.110;11.522;2023-01-23T06:24:58;82.93;;;28.47;;
16520;SDS011;8373;48.110;11.522;2023-01-23T06:27:25;80.30;;;27.23;;
16520;SDS011;8373;48.110;11.522;2023-01-23T06:29:52;78.07;;;30.00;;
16520;SDS011;8373;48.110;11.522;2023-01-23T06:32:19;86.23;;;28.50;;
16520;SDS011;8373;48.110;11.522;2023-01-23T06:34:47;94.33;;;28.50;;
16520;SDS011;8373;48.110;11.522;2023-01-23T06:37:14;92.60;;;29.57;;
16520;SDS011;8373;48.110;11.522;2023-01-23T06:39:41;86.03;;;26.73;;
16520;SDS011;8373;48.110;11.522;2023-01-23T06:42:09;104.97;;;32.70;;
16520;SDS011;8373;48.110;11.522;2023-01-23T06:44:36;107.43;;;31.60;;
16520;SDS011;8373;48.110;11.522;2023-01-23T06:47:03;90.00;;;29.33;;
16520;SDS011;8373;48.110;11.522;2023-01-23T06:49:30;95.67;;;31.30;;
16520;SDS011;8373;48.110;11.522;2023-01-23T06:51:57;87.53;;;30.40;;
16520;SDS011;8373;48.110;11.522;2023-01-23T06:54:24;105.73;;;30.63;;
16520;SDS011;8373;48.110;11.522;2023-01-23T06:56:51;102.63;;;30.93;;
16520;SDS011;8373;48.110;11.522;2023-01-23T06:59:20;118.10;;;34.43;;
16520;SDS011;8373;48.110;11.522;2023-01-23T07:01:47;104.60;;;33.07;;
16520;SDS011;8373;48.110;11.522;2023-01-23T07:04:14;111.60;;;33.27;;
16520;SDS011;8373;48.110;11.522;2023-01-23T07:06:41;136.73;;;34.80;;
16520;SDS011;8373;48.110;11.522;2023-01-23T07:09:08;135.63;;;38.23;;
16520;SDS011;8373;48.110;11.522;2023-01-23T07:11:35;136.27;;;35.93;;
16520;SDS011;8373;48.110;11.522;2023-01-23T07:14:02;142.37;;;36.57;;
16520;SDS011;8373;48.110;11.522;2023-01-23T07:16:30;161.17;;;37.47;;
16520;SDS011;8373;48.110;11.522;2023-01-23T07:18:59;113.33;;;36.90;;
16520;SDS011;8373;48.110;11.522;2023-01-23T07:21:28;132.37;;;35.67;;
16520;SDS011;8373;48.110;11.522;2023-01-23T07:23:55;128.80;;;35.20;;
16520;SDS011;8373;48.110;11.522;2023-01-23T07:26:22;127.73;;;33.27;;
16520;SDS011;8373;48.110;11.522;2023-01-23T07:28:49;116.90;;;32.37;;
16520;SDS011;8373;48.110;11.522;2023-01-23T07:31:15;119.47;;;31.40;;
16520;SDS011;8373;48.110;11.522;2023-01-23T07:33:44;120.63;;;31.40;;
16520;SDS011;8373;48.110;11.522;2023-01-23T07:36:11;107.87;;;29.47;;
16520;SDS011;8373;48.110;11.522;2023-01-23T07:38:39;104.03;;;31.17;;
16520;SDS011;8373;48.110;11.522;2023-01-23T07:41:06;102.23;;;29.67;;
16520;SDS011;8373;48.110;11.522;2023-01-23T07:43:33;109.67;;;29.70;;
16520;SDS011;8373;48.110;11.522;2023-01-23T07:45:59;110.07;;;31.00;;
16520;SDS011;8373;48.110;11.522;2023-01-23T07:48:27;115.73;;;32.20;;
16520;SDS011;8373;48.110;11.522;2023-01-23T07:50:56;135.27;;;29.90;;
16520;SDS011;8373;48.110;11.522;2023-01-23T07:53:26;113.70;;;32.07;;
16520;SDS011;8373;48.110;11.522;2023-01-23T07:55:53;109.33;;;32.93;;
16520;SDS011;8373;48.110;11.522;2023-01-23T07:58:20;132.87;;;34.00;;
16520;SDS011;8373;48.110;11.522;2023-01-23T08:00:47;151.07;;;38.73;;
16520;SDS011;8373;48.110;11.522;2023-01-23T08:03:13;118.93;;;35.60;;
16520;SDS011;8373;48.110;11.522;2023-01-23T08:05:40;136.53;;;35.60;;
16520;SDS011;8373;48.110;11.522;2023-01-23T08:08:09;144.93;;;34.03;;
16520;SDS011;8373;48.110;11.522;2023-01-23T08:10:36;145.47;;;34.53;;
16520;SDS011;8373;48.110;11.522;2023-01-23T08:13:02;125.07;;;32.57;;
16520;SDS011;8373;48.110;11.522;2023-01-23T08:15:29;116.37;;;34.10;;
16520;SDS011;8373;48.110;11.522;2023-01-23T08:17:56;107.30;;;31.87;;
16520;SDS011;8373;48.110;11.522;2023-01-23T08:20:23;120.00;;;33.40;;
16520;SDS011;8373;48.110;11.522;2023-01-23T08:22:50;125.43;;;34.23;;
16520;SDS011;8373;48.110;11.522;2023-01-23T08:25:18;119.67;;;33.57;;
16520;SDS011;8373;48.110;11.522;2023-01-23T08:27:45;128.03;;;34.40;;
16520;SDS011;8373;48.110;11.522;2023-01-23T08:30:12;97.87;;;30.57;;
16520;SDS011;8373;48.110;11.522;2023-01-23T08:32:40;95.53;;;29.17;;
16520;SDS011;8373;48.110;11.522;2023-01-23T08:35:07;114.63;;;29.87;;
16520;SDS011;8373;48.110;11.522;2023-01-23T08:37:34;95.57;;;28.03;;
16520;SDS011;8373;48.110;11.522;2023-01-23T08:40:02;113.00;;;29.90;;
16520;SDS011;8373;48.110;11.522;2023-01-23T08:42:30;91.60;;;28.73;;
16520;SDS011;8373;48.110;11.522;2023-01-23T08:44:57;99.37;;;28.67;;
16520;SDS011;8373;48.110;11.522;2023-01-23T08:47:24;91.47;;;27.03;;
16520;SDS011;8373;48.110;11.522;2023-01-23T08:49:51;93.23;;;28.60;;
16520;SDS011;8373;48.110;11.522;2023-01-23T08:52:18;91.27;;;28.10;;
16520;SDS011;8373;48.110;11.522;2023-01-23T08:54:45;91.67;;;26.27;;
16520;SDS011;8373;48.110;11.522;2023-01-23T08:57:12;68.63;;;24.23;;
16520;SDS011;8373;48.110;11.522;2023-01-23T08:59:40;84.87;;;27.90;;
16520;SDS011;8373;48.110;11.522;2023-01-23T09:02:09;73.90;;;24.17;;
16520;SDS011;8373;48.110;11.522;2023-01-23T09:04:37;80.90;;;27.90;;
16520;SDS011;8373;48.110;11.522;2023-01-23T09:07:04;78.70;;;24.77;;
16520;SDS011;8373;48.110;11.522;2023-01-23T09:09:31;92.30;;;26.83;;
16520;SDS011;8373;48.110;11.522;2023-01-23T09:11:58;89.30;;;26.80;;
16520;SDS011;8373;48.110;11.522;2023-01-23T09:14:25;88.77;;;26.17;;
16520;SDS011;8373;48.110;11.522;2023-01-23T09:16:53;77.43;;;25.77;;
16520;SDS011;8373;48.110;11.522;2023-01-23T09:19:20;80.47;;;27.23;;
16520;SDS011;8373;48.110;11.522;2023-01-23T09:21:47;79.87;;;26.17;;
16520;SDS011;8373;48.110;11.522;2023-01-23T09:24:15;83.87;;;25.00;;
16520;SDS011;8373;48.110;11.522;2023-01-23T09:26:42;100.23;;;28.60;;
16520;SDS011;8373;48.110;11.522;2023-01-23T09:29:09;86.80;;;26.80;;
16520;SDS011;8373;48.110;11.522;2023-01-23T09:31:35;91.93;;;27.90;;
16520;SDS011;8373;48.110;11.522;2023-01-23T09:34:04;93.73;;;28.77;;
16520;SDS011;8373;48.110;11.522;2023-01-23T09:36:32;79.63;;;27.43;;
16520;SDS011;8373;48.110;11.522;2023-01-23T09:38:59;83.00;;;28.03;;
16520;SDS011;8373;48.110;11.522;2023-01-23T09:41:27;87.77;;;28.60;;
16520;SDS011;8373;48.110;11.522;2023-01-23T09:43:56;95.27;;;31.40;;
16520;SDS011;8373;48.110;11.522;2023-01-23T09:46:31;94.13;;;29.70;;
16520;SDS011;8373;48.110;11.522;2023-01-23T09:49:03;92.97;;;27.23;;
16520;SDS011;8373;48.110;11.522;2023-01-23T09:51:43;102.07;;;28.20;;
16520;SDS011;8373;48.110;11.522;2023-01-23T09:54:26;89.23;;;29.07;;
16520;SDS011;8373;48.110;11.522;2023-01-23T09:56:59;86.40;;;27.90;;
16520;SDS011;8373;48.110;11.522;2023-01-23T09:59:32;98.50;;;29.43;;
16520;SDS011;8373;48.110;11.522;2023-01-23T10:02:02;91.73;;;27.80;;
16520;SDS011;8373;48.110;11.522;2023-01-23T10:04:37;101.03;;;29.60;;
16520;SDS011;8373;48.110;11.522;2023-01-23T10:10:02;95.90;;;30.57;;
16520;SDS011;8373;48.110;11.522;2023-01-23T10:12:43;88.53;;;28.67;;
16520;SDS011;8373;48.110;11.522;2023-01-23T10:15:21;95.20;;;30.30;;
16520;SDS011;8373;48.110;11.522;2023-01-23T10:17:58;92.40;;;28.80;;
16520;SDS011;8373;48.110;11.522;2023-01-23T10:20:43;91.03;;;29.27;;
16520;SDS011;8373;48.110;11.522;2023-01-23T10:23:26;89.33;;;27.93;;
16520;SDS011;8373;48.110;11.522;2023-01-23T10:26:16;76.87;;;29.20;;
16520;SDS011;8373;48.110;11.522;2023-01-23T10:28:46;73.60;;;26.57;;
16520;SDS011;8373;48.110;11.522;2023-01-23T10:31:18;78.70;;;27.67;;
16520;SDS011;8373;48.110;11.522;2023-01-23T10:33:53;81.47;;;27.03;;
16520;SDS011;8373;48.110;11.522;2023-01-23T10:36:29;89.07;;;29.00;;
16520;SDS011;8373;48.110;11.522;2023-01-23T10:39:01;91.33;;;29.13;;
16520;SDS011;8373;48.110;11.522;2023-01-23T10:41:31;97.13;;;30.93;;
16520;SDS011;8373;48.110;11.522;2023-01-23T10:43:59;100.40;;;29.30;;
16520;SDS011;8373;48.110;11.522;2023-01-23T10:46:27;96.40;;;28.97;;
16520;SDS011;8373;48.110;11.522;2023-01-23T10:48:56;86.07;;;27.57;;
16520;SDS011;8373;48.110;11.522;2023-01-23T10:51:31;103.03;;;32.07;;
16520;SDS011;8373;48.110;11.522;2023-01-23T10:54:04;96.00;;;30.93;;
16520;SDS011;8373;48.110;11.522;2023-01-23T10:56:38;113.40;;;32.60;;
16520;SDS011;8373;48.110;11.522;2023-01-23T10:59:17;110.90;;;31.10;;
16520;SDS011;8373;48.110;11.522;2023-01-23T11:01:53;107.37;;;31.20;;
16520;SDS011;8373;48.110;11.522;2023-01-23T11:04:24;91.67;;;29.80;;
16520;SDS011;8373;48.110;11.522;2023-01-23T11:07:04;88.83;;;29.53;;
16520;SDS011;8373;48.110;11.522;2023-01-23T11:09:44;111.93;;;32.90;;
16520;SDS011;8373;48.110;11.522;2023-01-23T11:12:17;94.40;;;31.07;;
16520;SDS011;8373;48.110;11.522;2023-01-23T11:14:46;100.07;;;31.77;;
16520;SDS011;8373;48.110;11.522;2023-01-23T11:17:21;106.43;;;30.47;;
16520;SDS011;8373;48.110;11.522;2023-01-23T11:19:50;95.23;;;30.73;;
16520;SDS011;8373;48.110;11.522;2023-01-23T11:22:30;96.73;;;31.67;;
16520;SDS011;8373;48.110;11.522;2023-01-23T11:24:58;103.23;;;32.37;;
16520;SDS011;8373;48.110;11.522;2023-01-23T11:27:29;99.90;;;31.43;;
16520;SDS011;8373;48.110;11.522;2023-01-23T11:30:11;103.20;;;30.37;;
16520;SDS011;8373;48.110;11.522;2023-01-23T11:32:52;104.03;;;30.40;;
16520;SDS011;8373;48.110;11.522;2023-01-23T11:35:24;108.57;;;31.23;;
16520;SDS011;8373;48.110;11.522;2023-01-23T11:38:01;89.33;;;29.13;;
16520;SDS011;8373;48.110;11.522;2023-01-23T11:40:30;89.50;;;30.10;;
16520;SDS011;8373;48.110;11.522;2023-01-23T11:42:57;90.70;;;28.73;;
16520;SDS011;8373;48.110;11.522;2023-01-23T11:45:30;124.07;;;33.33;;
16520;SDS011;8373;48.110;11.522;2023-01-23T11:48:13;108.60;;;32.70;;
16520;SDS011;8373;48.110;11.522;2023-01-23T11:50:58;97.87;;;30.40;;
16520;SDS011;8373;48.110;11.522;2023-01-23T11:53:32;103.70;;;31.30;;
16520;SDS011;8373;48.110;11.522;2023-01-23T11:56:09;87.93;;;31.00;;
16520;SDS011;8373;48.110;11.522;2023-01-23T11:58:59;101.43;;;30.57;;
16520;SDS011;8373;48.110;11.522;2023-01-23T12:01:53;92.20;;;28.73;;
16520;SDS011;8373;48.110;11.522;2023-01-23T12:04:42;105.00;;;32.13;;
16520;SDS011;8373;48.110;11.522;2023-01-23T12:07:24;102.17;;;32.23;;
16520;SDS011;8373;48.110;11.522;2023-01-23T12:09:58;85.07;;;27.60;;
16520;SDS011;8373;48.110;11.522;2023-01-23T12:12:45;99.37;;;31.07;;
16520;SDS011;8373;48.110;11.522;2023-01-23T12:15:36;91.23;;;28.40;;
16520;SDS011;8373;48.110;11.522;2023-01-23T12:18:13;97.80;;;30.27;;
16520;SDS011;8373;48.110;11.522;2023-01-23T12:20:53;89.83;;;29.30;;
16520;SDS011;8373;48.110;11.522;2023-01-23T12:23:34;97.40;;;30.63;;
16520;SDS011;8373;48.110;11.522;2023-01-23T12:26:12;89.83;;;29.63;;
16520;SDS011;8373;48.110;11.522;2023-01-23T12:28:48;86.47;;;31.30;;
16520;SDS011;8373;48.110;11.522;2023-01-23T12:34:42;86.03;;;28.60;;
16520;SDS011;8373;48.110;11.522;2023-01-23T12:37:23;95.30;;;31.90;;
16520;SDS011;8373;48.110;11.522;2023-01-23T12:40:03;88.03;;;31.37;;
16520;SDS011;8373;48.110;11.522;2023-01-23T12:42:39;80.70;;;28.27;;
16520;SDS011;8373;48.110;11.522;2023-01-23T12:45:14;90.37;;;28.87;;
16520;SDS011;8373;48.110;11.522;2023-01-23T12:47:47;84.67;;;29.13;;
16520;SDS011;8373;48.110;11.522;2023-01-23T12:50:22;86.97;;;29.67;;
16520;SDS011;8373;48.110;11.522;2023-01-23T12:52:56;93.17;;;30.33;;
16520;SDS011;8373;48.110;11.522;2023-01-23T12:55:27;92.83;;;30.47;;
16520;SDS011;8373;48.110;11.522;2023-01-23T12:58:02;98.17;;;29.87;;
16520;SDS011;8373;48.110;11.522;2023-01-23T13:00:33;87.63;;;28.80;;
16520;SDS011;8373;48.110;11.522;2023-01-23T13:03:13;89.53;;;31.03;;
16520;SDS011;8373;48.110;11.522;2023-01-23T13:06:01;82.63;;;28.40;;
16520;SDS011;8373;48.110;11.522;2023-01-23T13:08:35;93.57;;;29.67;;
16520;SDS011;8373;48.110;11.522;2023-01-23T13:11:09;100.37;;;29.43;;
16520;SDS011;8373;48.110;11.522;2023-01-23T13:13:59;102.93;;;28.60;;
16520;SDS011;8373;48.110;11.522;2023-01-23T13:16:27;100.43;;;30.70;;
16520;SDS011;8373;48.110;11.522;2023-01-23T13:18:56;92.07;;;28.50;;
16520;SDS011;8373;48.110;11.522;2023-01-23T13:24:42;90.60;;;28.50;;
16520;SDS011;8373;48.110;11.522;2023-01-23T13:27:33;97.23;;;29.83;;
16520;SDS011;8373;48.110;11.522;2023-01-23T13:36:21;82.43;;;27.47;;
16520;SDS011;8373;48.110;11.522;2023-01-23T13:41:50;78.10;;;26.97;;
16520;SDS011;8373;48.110;11.522;2023-01-23T13:47:39;78.73;;;26.53;;
16520;SDS011;8373;48.110;11.522;2023-01-23T13:50:33;76.27;;;24.83;;
16520;SDS011;8373;48.110;11.522;2023-01-23T13:53:08;86.30;;;27.90;;
16520;SDS011;8373;48.110;11.522;2023-01-23T13:55:58;85.87;;;26.17;;
16520;SDS011;8373;48.110;11.522;2023-01-23T13:58:43;76.30;;;27.30;;
16520;SDS011;8373;48.110;11.522;2023-01-23T14:01:11;85.87;;;28.30;;
16520;SDS011;8373;48.110;11.522;2023-01-23T14:04:00;89.50;;;27.70;;
16520;SDS011;8373;48.110;11.522;2023-01-23T14:06:49;76.70;;;24.87;;
16520;SDS011;8373;48.110;11.522;2023-01-23T14:09:19;85.23;;;27.17;;
16520;SDS011;8373;48.110;11.522;2023-01-23T14:11:47;75.73;;;25.87;;
16520;SDS011;8373;48.110;11.522;2023-01-23T14:14:22;77.27;;;25.70;;
16520;SDS011;8373;48.110;11.522;2023-01-23T14:17:07;87.90;;;27.97;;
16520;SDS011;8373;48.110;11.522;2023-01-23T14:19:44;86.47;;;27.63;;
16520;SDS011;8373;48.110;11.522;2023-01-23T14:22:18;67.80;;;24.17;;
16520;SDS011;8373;48.110;11.522;2023-01-23T14:24:45;74.70;;;25.43;;
16520;SDS011;8373;48.110;11.522;2023-01-23T14:27:18;74.70;;;25.10;;
16520;SDS011;8373;48.110;11.522;2023-01-23T14:29:56;76.57;;;27.60;;
16520;SDS011;8373;48.110;11.522;2023-01-23T14:32:24;74.60;;;28.80;;
16520;SDS011;8373;48.110;11.522;2023-01-23T14:34:55;80.00;;;26.97;;
16520;SDS011;8373;48.110;11.522;2023-01-23T14:37:23;76.03;;;26.50;;
16520;SDS011;8373;48.110;11.522;2023-01-23T14:39:52;77.43;;;28.37;;
16520;SDS011;8373;48.110;11.522;2023-01-23T14:42:23;66.03;;;24.27;;
16520;SDS011;8373;48.110;11.522;2023-01-23T14:44:53;77.83;;;27.03;;
16520;SDS011;8373;48.110;11.522;2023-01-23T14:47:22;74.83;;;25.40;;
16520;SDS011;8373;48.110;11.522;2023-01-23T14:49:54;63.13;;;24.40;;
16520;SDS011;8373;48.110;11.522;2023-01-23T14:52:23;63.67;;;24.60;;
16520;SDS011;8373;48.110;11.522;2023-01-23T14:54:53;75.37;;;25.83;;
16520;SDS011;8373;48.110;11.522;2023-01-23T14:57:20;81.73;;;25.63;;
16520;SDS011;8373;48.110;11.522;2023-01-23T14:59:49;69.27;;;25.77;;